createdAt,value
2023-04-16T00:01:02.779Z,100.00
2023-04-16T00:02:05.737Z,100.00
2023-04-16T00:03:08.263Z,100.00
2023-04-16T00:04:13.968Z,100.00
2023-04-16T00:05:16.981Z,100.00
2023-04-16T00:06:19.537Z,100.00
2023-04-16T00:07:21.760Z,100.00
2023-04-16T00:08:24.221Z,100.00
2023-04-16T00:09:26.561Z,100.00
2023-04-16T00:10:29.042Z,100.00
2023-04-16T00:11:31.277Z,100.00
2023-04-16T00:12:33.523Z,100.00
2023-04-16T00:13:35.977Z,100.00
2023-04-16T00:14:38.344Z,100.00
2023-04-16T00:15:40.966Z,100.00
2023-04-16T00:16:43.434Z,100.00
2023-04-16T00:17:46.962Z,100.00
2023-04-16T00:18:49.525Z,100.00
2023-04-16T00:19:51.619Z,100.00
2023-04-16T00:20:54.159Z,100.00
2023-04-16T00:21:56.494Z,100.00
2023-04-16T00:22:58.665Z,100.00
2023-04-16T00:24:01.006Z,100.00
2023-04-16T00:25:03.835Z,100.00
2023-04-16T00:26:08.075Z,100.00
2023-04-16T00:27:10.367Z,100.00
2023-04-16T00:28:12.720Z,100.00
2023-04-16T00:29:15.012Z,100.00
2023-04-16T00:30:17.491Z,100.00
2023-04-16T00:31:29.465Z,100.00
2023-04-16T00:32:32.452Z,100.00
2023-04-16T00:33:34.773Z,100.00
2023-04-16T00:34:37.056Z,99.96
2023-04-16T00:35:40.537Z,100.00
2023-04-16T00:36:43.167Z,100.00
2023-04-16T00:37:45.702Z,100.00
2023-04-16T00:38:49.081Z,100.00
2023-04-16T00:39:51.482Z,100.00
2023-04-16T00:40:53.967Z,100.00
2023-04-16T00:41:56.280Z,100.00
2023-04-16T00:42:58.517Z,100.00
2023-04-16T00:44:00.960Z,100.00
2023-04-16T00:45:05.049Z,100.00
2023-04-16T00:46:08.276Z,100.00
2023-04-16T00:47:11.341Z,100.00
2023-04-16T00:48:13.601Z,100.00
2023-04-16T00:49:16.240Z,100.00
2023-04-16T00:50:18.800Z,100.00
2023-04-16T00:51:22.403Z,100.00
2023-04-16T00:52:26.095Z,100.00
2023-04-16T00:53:28.777Z,100.00
2023-04-16T00:54:31.552Z,100.00
2023-04-16T00:55:34.212Z,100.00
2023-04-16T00:56:38.660Z,100.00
2023-04-16T00:57:40.890Z,100.00
2023-04-16T00:58:43.220Z,100.00
2023-04-16T00:59:45.715Z,100.00
2023-04-16T01:00:48.171Z,100.00
2023-04-16T01:01:51.686Z,100.00
2023-04-16T01:02:55.315Z,100.00
2023-04-16T01:03:58.590Z,100.00
2023-04-16T01:05:03.938Z,100.00
2023-04-16T01:06:07.459Z,100.00
2023-04-16T01:07:09.674Z,100.00
2023-04-16T01:08:18.104Z,100.00
2023-04-16T01:09:20.628Z,100.00
2023-04-16T01:10:22.889Z,100.00
2023-04-16T01:11:25.597Z,100.00
2023-04-16T01:12:28.322Z,100.00
2023-04-16T01:13:30.668Z,100.00
2023-04-16T01:14:34.787Z,100.00
2023-04-16T01:15:38.251Z,100.00
2023-04-16T01:16:41.157Z,100.00
2023-04-16T01:17:46.183Z,100.00
2023-04-16T01:18:48.950Z,100.00
2023-04-16T01:19:51.111Z,100.00
2023-04-16T01:20:53.534Z,100.00
2023-04-16T01:21:55.657Z,100.00
2023-04-16T01:22:57.931Z,100.00
2023-04-16T01:24:04.061Z,100.00
2023-04-16T01:25:06.509Z,100.00
2023-04-16T01:26:09.119Z,100.00
2023-04-16T01:27:11.265Z,100.00
2023-04-16T01:28:13.970Z,100.00
2023-04-16T01:29:16.811Z,100.00
2023-04-16T01:30:19.130Z,100.00
2023-04-16T01:31:23.304Z,100.00
2023-04-16T01:32:28.047Z,100.00
2023-04-16T01:33:30.437Z,100.00
2023-04-16T01:34:32.556Z,100.00
2023-04-16T01:35:34.780Z,100.00
2023-04-16T01:36:37.142Z,100.00
2023-04-16T01:37:39.459Z,100.00
2023-04-16T01:38:41.905Z,100.00
2023-04-16T01:39:44.126Z,100.00
2023-04-16T01:40:46.382Z,100.00
2023-04-16T01:41:48.611Z,100.00
2023-04-16T01:42:51.154Z,100.00
2023-04-16T01:43:53.398Z,100.00
2023-04-16T01:44:55.612Z,100.00
2023-04-16T01:46:14.820Z,100.00
2023-04-16T01:47:17.931Z,100.00
2023-04-16T01:48:20.305Z,100.00
2023-04-16T01:49:23.351Z,100.00
2023-04-16T01:50:26.157Z,100.00
2023-04-16T01:51:28.577Z,100.00
2023-04-16T01:52:30.823Z,100.00
2023-04-16T01:53:35.139Z,100.00
2023-04-16T01:54:38.137Z,100.00
2023-04-16T01:55:40.708Z,100.00
2023-04-16T01:56:44.292Z,100.00
2023-04-16T01:57:47.179Z,100.00
2023-04-16T01:58:49.875Z,100.00
2023-04-16T01:59:53.476Z,100.00
2023-04-16T02:00:57.084Z,100.00
2023-04-16T02:02:03.291Z,100.00
2023-04-16T02:03:05.836Z,100.00
2023-04-16T02:04:09.366Z,100.00
2023-04-16T02:05:11.870Z,100.00
2023-04-16T02:06:15.001Z,100.00
2023-04-16T02:07:17.221Z,100.00
2023-04-16T02:08:19.462Z,100.00
2023-04-16T02:09:23.705Z,100.00
2023-04-16T02:10:26.408Z,100.00
2023-04-16T02:11:29.136Z,100.00
2023-04-16T02:12:31.827Z,100.00
2023-04-16T02:13:34.656Z,100.00
2023-04-16T02:14:37.401Z,100.00
2023-04-16T02:15:39.945Z,100.00
2023-04-16T02:16:42.495Z,100.00
2023-04-16T02:17:48.342Z,100.00
2023-04-16T02:18:50.795Z,100.00
2023-04-16T02:19:55.982Z,100.00
2023-04-16T02:21:01.672Z,100.00
2023-04-16T02:22:04.175Z,100.00
2023-04-16T02:23:08.385Z,100.00
2023-04-16T02:24:11.779Z,100.00
2023-04-16T02:25:13.991Z,100.00
2023-04-16T02:26:16.934Z,100.00
2023-04-16T02:27:19.299Z,100.00
2023-04-16T02:28:23.578Z,100.00
2023-04-16T02:29:26.045Z,100.00
2023-04-16T02:30:31.246Z,100.00
2023-04-16T02:31:33.717Z,100.00
2023-04-16T02:32:35.878Z,100.00
2023-04-16T02:33:38.689Z,100.00
2023-04-16T02:34:42.449Z,100.00
2023-04-16T02:35:48.030Z,100.00
2023-04-16T02:36:50.455Z,100.00
2023-04-16T02:37:52.801Z,100.00
2023-04-16T02:38:55.448Z,100.00
2023-04-16T02:39:58.239Z,100.00
2023-04-16T02:41:00.844Z,100.00
2023-04-16T02:42:04.044Z,100.00
2023-04-16T02:43:06.284Z,100.00
2023-04-16T02:44:08.697Z,100.00
2023-04-16T02:45:11.323Z,100.00
2023-04-16T02:46:15.019Z,100.00
2023-04-16T02:47:17.479Z,100.00
2023-04-16T02:48:19.863Z,100.00
2023-04-16T02:49:22.211Z,100.00
2023-04-16T02:50:24.745Z,100.00
2023-04-16T02:51:27.074Z,100.00
2023-04-16T02:52:29.401Z,100.00
2023-04-16T02:53:31.537Z,100.00
2023-04-16T02:54:33.863Z,100.00
2023-04-16T02:55:36.400Z,100.00
2023-04-16T02:56:38.557Z,100.00
2023-04-16T02:57:41.796Z,100.00
2023-04-16T02:58:44.634Z,100.00
2023-04-16T02:59:47.497Z,100.00
2023-04-16T03:00:50.731Z,100.00
2023-04-16T03:01:53.972Z,100.00
2023-04-16T03:02:56.688Z,100.00
2023-04-16T03:03:59.329Z,100.00
2023-04-16T03:05:02.546Z,100.00
2023-04-16T03:06:05.180Z,100.00
2023-04-16T03:07:08.496Z,100.00
2023-04-16T03:08:12.497Z,100.00
2023-04-16T03:09:14.775Z,100.00
2023-04-16T03:10:17.523Z,100.00
2023-04-16T03:11:20.444Z,100.00
2023-04-16T03:12:22.959Z,100.00
2023-04-16T03:13:25.280Z,100.00
2023-04-16T03:14:27.523Z,100.00
2023-04-16T03:15:30.596Z,100.00
2023-04-16T03:16:33.362Z,100.00
2023-04-16T03:17:35.757Z,100.00
2023-04-16T03:18:38.054Z,100.00
2023-04-16T03:19:40.357Z,100.00
2023-04-16T03:20:43.126Z,100.00
2023-04-16T03:21:47.044Z,100.00
2023-04-16T03:22:51.857Z,100.00
2023-04-16T03:23:55.568Z,100.00
2023-04-16T03:24:58.039Z,100.00
2023-04-16T03:26:00.286Z,100.00
2023-04-16T03:27:03.534Z,100.00
2023-04-16T03:28:06.364Z,100.00
2023-04-16T03:29:09.081Z,100.00
2023-04-16T03:30:13.749Z,100.00
2023-04-16T03:31:16.429Z,100.00
2023-04-16T03:32:18.847Z,100.00
2023-04-16T03:33:22.079Z,100.00
2023-04-16T03:34:24.575Z,100.00
2023-04-16T03:35:27.384Z,100.00
2023-04-16T03:36:30.856Z,100.00
2023-04-16T03:37:34.965Z,100.00
2023-04-16T03:38:37.469Z,100.00
2023-04-16T03:39:39.910Z,100.00
2023-04-16T03:40:42.158Z,100.00
2023-04-16T03:41:44.794Z,100.00
2023-04-16T03:42:47.031Z,100.00
2023-04-16T03:43:49.664Z,100.00
2023-04-16T03:44:53.107Z,100.00
2023-04-16T03:45:56.841Z,100.00
2023-04-16T03:47:00.338Z,100.00
2023-04-16T03:48:02.650Z,100.00
2023-04-16T03:49:05.768Z,100.00
2023-04-16T03:50:11.011Z,100.00
2023-04-16T03:51:13.976Z,100.00
2023-04-16T03:52:17.480Z,100.00
2023-04-16T03:53:19.994Z,100.00
2023-04-16T03:54:23.152Z,100.00
2023-04-16T03:55:29.368Z,100.00
2023-04-16T03:56:32.927Z,100.00
2023-04-16T03:57:35.186Z,100.00
2023-04-16T03:58:39.354Z,100.00
2023-04-16T03:59:43.448Z,100.00
2023-04-16T04:00:45.934Z,100.00
2023-04-16T04:01:48.914Z,100.00
2023-04-16T04:02:51.580Z,100.00
2023-04-16T04:03:55.009Z,100.00
2023-04-16T04:04:57.255Z,100.00
2023-04-16T04:05:59.612Z,100.00
2023-04-16T04:07:04.279Z,100.00
2023-04-16T04:08:07.441Z,100.00
2023-04-16T04:09:11.263Z,100.00
2023-04-16T04:10:15.072Z,100.00
2023-04-16T04:11:17.597Z,99.92
2023-04-16T04:12:22.180Z,99.31
2023-04-16T04:13:24.851Z,99.15
2023-04-16T04:14:27.466Z,98.86
2023-04-16T04:15:29.996Z,98.61
2023-04-16T04:16:32.624Z,98.54
2023-04-16T04:17:35.838Z,98.54
2023-04-16T04:18:44.319Z,98.24
2023-04-16T04:19:54.232Z,97.87
2023-04-16T04:20:48.790Z,97.95
2023-04-16T04:21:53.010Z,98.13
2023-04-16T04:22:55.257Z,98.44
2023-04-16T04:23:59.839Z,98.63
2023-04-16T04:25:04.915Z,98.69
2023-04-16T04:26:09.313Z,98.69
2023-04-16T04:27:11.940Z,98.82
2023-04-16T04:28:14.396Z,98.67
2023-04-16T04:29:16.546Z,99.05
2023-04-16T04:30:18.987Z,99.33
2023-04-16T04:31:21.232Z,99.57
2023-04-16T04:32:23.486Z,99.63
2023-04-16T04:33:25.902Z,99.27
2023-04-16T04:34:28.055Z,99.21
2023-04-16T04:35:31.248Z,99.17
2023-04-16T04:36:34.251Z,99.13
2023-04-16T04:37:36.698Z,99.12
2023-04-16T04:38:40.858Z,99.56
2023-04-16T04:39:43.103Z,100.00
2023-04-16T04:40:52.701Z,100.00
2023-04-16T04:41:56.772Z,100.00
2023-04-16T04:42:59.083Z,100.00
2023-04-16T04:44:01.510Z,100.00
2023-04-16T04:45:05.668Z,100.00
2023-04-16T04:46:11.059Z,100.00
2023-04-16T04:47:14.847Z,100.00
2023-04-16T04:48:18.565Z,100.00
2023-04-16T04:49:21.349Z,100.00
2023-04-16T04:50:23.491Z,100.00
2023-04-16T04:51:26.515Z,100.00
2023-04-16T04:52:28.700Z,100.00
2023-04-16T04:53:30.901Z,100.00
2023-04-16T04:54:33.126Z,100.00
2023-04-16T04:55:39.504Z,100.00
2023-04-16T04:56:43.840Z,100.00
2023-04-16T04:57:46.155Z,100.00
2023-04-16T04:58:50.661Z,100.00
2023-04-16T04:59:54.668Z,100.00
2023-04-16T05:00:57.393Z,100.00
2023-04-16T05:01:59.886Z,100.00
2023-04-16T05:03:04.180Z,100.00
2023-04-16T05:04:06.550Z,100.00
2023-04-16T05:05:09.300Z,100.00
2023-04-16T05:06:12.244Z,100.00
2023-04-16T05:07:15.636Z,100.00
2023-04-16T05:08:18.057Z,100.00
2023-04-16T05:09:20.552Z,100.00
2023-04-16T05:10:23.289Z,100.00
2023-04-16T05:11:26.757Z,99.88
2023-04-16T05:12:29.127Z,99.93
2023-04-16T05:13:31.394Z,99.77
2023-04-16T05:14:34.332Z,99.73
2023-04-16T05:15:37.213Z,99.50
2023-04-16T05:16:39.717Z,99.05
2023-04-16T05:17:42.119Z,98.77
2023-04-16T05:18:44.194Z,98.48
2023-04-16T05:19:48.302Z,98.48
2023-04-16T05:20:50.792Z,98.38
2023-04-16T05:21:54.265Z,98.37
2023-04-16T05:22:56.622Z,97.84
2023-04-16T05:23:59.411Z,97.33
2023-04-16T05:25:01.798Z,97.13
2023-04-16T05:26:04.269Z,97.19
2023-04-16T05:27:06.591Z,97.29
2023-04-16T05:28:09.768Z,97.30
2023-04-16T05:29:12.551Z,97.43
2023-04-16T05:30:15.798Z,97.74
2023-04-16T05:31:18.625Z,97.56
2023-04-16T05:32:21.713Z,97.37
2023-04-16T05:33:24.701Z,97.60
2023-04-16T05:34:27.350Z,97.68
2023-04-16T05:35:29.613Z,97.58
2023-04-16T05:36:32.257Z,97.58
2023-04-16T05:37:34.698Z,97.44
2023-04-16T05:38:36.711Z,97.48
2023-04-16T05:39:39.152Z,97.49
2023-04-16T05:40:41.827Z,97.67
2023-04-16T05:41:44.167Z,97.84
2023-04-16T05:42:46.464Z,97.80
2023-04-16T05:43:49.213Z,97.41
2023-04-16T05:44:52.471Z,97.19
2023-04-16T05:45:54.786Z,97.03
2023-04-16T05:46:57.139Z,96.75
2023-04-16T05:47:59.428Z,96.71
2023-04-16T05:49:01.638Z,96.58
2023-04-16T05:50:04.067Z,96.51
2023-04-16T05:51:06.518Z,96.22
2023-04-16T05:52:09.105Z,96.25
2023-04-16T05:53:13.326Z,96.33
2023-04-16T05:54:15.498Z,96.26
2023-04-16T05:55:18.692Z,96.32
2023-04-16T05:56:21.977Z,96.19
2023-04-16T05:57:24.614Z,96.20
2023-04-16T05:58:26.746Z,96.45
2023-04-16T05:59:31.186Z,96.84
2023-04-16T06:00:34.072Z,96.78
2023-04-16T06:01:36.532Z,96.92
2023-04-16T06:02:39.646Z,97.14
2023-04-16T06:03:42.181Z,97.34
2023-04-16T06:04:46.745Z,97.50
2023-04-16T06:05:49.365Z,97.48
2023-04-16T06:06:51.974Z,97.77
2023-04-16T06:07:55.923Z,97.62
2023-04-16T06:08:59.359Z,97.54
2023-04-16T06:10:01.885Z,97.61
2023-04-16T06:11:05.071Z,97.61
2023-04-16T06:12:07.573Z,97.84
2023-04-16T06:13:11.300Z,97.70
2023-04-16T06:14:14.734Z,97.68
2023-04-16T06:15:16.992Z,98.00
2023-04-16T06:16:19.159Z,98.46
2023-04-16T06:17:22.074Z,98.51
2023-04-16T06:18:24.701Z,98.58
2023-04-16T06:19:26.947Z,98.52
2023-04-16T06:20:30.021Z,98.66
2023-04-16T06:21:33.112Z,98.55
2023-04-16T06:22:35.616Z,98.45
2023-04-16T06:23:37.853Z,98.54
2023-04-16T06:24:40.507Z,98.16
2023-04-16T06:25:42.768Z,98.24
2023-04-16T06:26:45.097Z,97.88
2023-04-16T06:27:47.351Z,97.81
2023-04-16T06:28:49.901Z,97.77
2023-04-16T06:29:54.471Z,97.92
2023-04-16T06:30:57.119Z,97.83
2023-04-16T06:32:01.603Z,97.77
2023-04-16T06:33:06.236Z,97.86
2023-04-16T06:34:09.075Z,98.05
2023-04-16T06:35:11.686Z,98.33
2023-04-16T06:36:14.404Z,98.50
2023-04-16T06:37:17.119Z,98.46
2023-04-16T06:38:19.227Z,98.07
2023-04-16T06:39:21.923Z,97.83
2023-04-16T06:40:24.796Z,97.46
2023-04-16T06:41:28.056Z,97.50
2023-04-16T06:42:32.326Z,97.88
2023-04-16T06:43:34.563Z,98.31
2023-04-16T06:44:36.813Z,98.40
2023-04-16T06:45:39.034Z,98.49
2023-04-16T06:46:41.936Z,98.13
2023-04-16T06:47:45.515Z,98.05
2023-04-16T06:48:47.801Z,98.18
2023-04-16T06:49:49.976Z,97.99
2023-04-16T06:50:52.418Z,98.01
2023-04-16T06:51:54.705Z,98.13
2023-04-16T06:52:57.177Z,98.54
2023-04-16T06:53:59.484Z,98.51
2023-04-16T06:55:02.154Z,98.71
2023-04-16T06:56:05.820Z,98.91
2023-04-16T06:57:08.053Z,98.96
2023-04-16T06:58:10.476Z,98.88
2023-04-16T06:59:13.729Z,98.83
2023-04-16T07:00:17.211Z,98.95
2023-04-16T07:01:19.855Z,99.09
2023-04-16T07:02:23.272Z,99.27
2023-04-16T07:03:27.076Z,98.79
2023-04-16T07:04:30.674Z,98.65
2023-04-16T07:05:33.621Z,98.48
2023-04-16T07:06:35.913Z,98.48
2023-04-16T07:07:38.044Z,98.83
2023-04-16T07:08:40.173Z,98.89
2023-04-16T07:09:42.835Z,98.56
2023-04-16T07:10:45.590Z,98.06
2023-04-16T07:11:48.904Z,97.88
2023-04-16T07:12:52.552Z,98.04
2023-04-16T07:13:55.156Z,98.18
2023-04-16T07:14:57.708Z,98.58
2023-04-16T07:16:00.025Z,98.77
2023-04-16T07:17:02.975Z,98.94
2023-04-16T07:18:05.226Z,98.86
2023-04-16T07:19:08.319Z,98.77
2023-04-16T07:20:12.098Z,98.93
2023-04-16T07:21:14.972Z,99.07
2023-04-16T07:22:17.629Z,99.17
2023-04-16T07:23:20.396Z,99.07
2023-04-16T07:24:22.620Z,99.00
2023-04-16T07:25:25.453Z,98.86
2023-04-16T07:26:27.889Z,98.57
2023-04-16T07:27:30.212Z,98.29
2023-04-16T07:28:32.908Z,98.36
2023-04-16T07:29:35.239Z,98.30
2023-04-16T07:30:39.658Z,98.46
2023-04-16T07:31:43.158Z,99.03
2023-04-16T07:32:46.107Z,99.25
2023-04-16T07:33:49.025Z,99.16
2023-04-16T07:34:52.629Z,99.22
2023-04-16T07:35:54.921Z,99.25
2023-04-16T07:36:57.227Z,99.33
2023-04-16T07:37:59.462Z,99.45
2023-04-16T07:39:01.685Z,99.41
2023-04-16T07:40:04.899Z,99.51
2023-04-16T07:41:07.634Z,99.70
2023-04-16T07:42:10.590Z,99.36
2023-04-16T07:43:14.880Z,99.28
2023-04-16T07:44:17.200Z,99.48
2023-04-16T07:45:22.530Z,99.44
2023-04-16T07:46:30.464Z,98.96
2023-04-16T07:47:30.097Z,98.45
2023-04-16T07:48:32.376Z,98.29
2023-04-16T07:49:34.750Z,98.27
2023-04-16T07:50:37.257Z,98.14
2023-04-16T07:51:41.648Z,98.07
2023-04-16T07:52:45.838Z,98.16
2023-04-16T07:53:50.027Z,98.10
2023-04-16T07:54:52.737Z,97.93
2023-04-16T07:55:56.855Z,97.65
2023-04-16T07:56:59.561Z,97.48
2023-04-16T07:58:07.926Z,97.38
2023-04-16T07:59:22.098Z,97.53
2023-04-16T08:00:15.470Z,97.39
2023-04-16T08:01:17.899Z,96.95
2023-04-16T08:02:20.445Z,97.31
2023-04-16T08:03:23.112Z,97.87
2023-04-16T08:04:26.466Z,97.32
2023-04-16T08:05:29.120Z,97.18
2023-04-16T08:06:31.752Z,98.16
2023-04-16T08:07:34.943Z,99.03
2023-04-16T08:08:39.658Z,98.91
2023-04-16T08:09:49.281Z,98.94
2023-04-16T08:10:53.615Z,99.27
2023-04-16T08:11:55.939Z,98.93
2023-04-16T08:13:01.057Z,98.00
2023-04-16T08:14:03.458Z,98.10
2023-04-16T08:15:07.011Z,97.78
2023-04-16T08:16:09.649Z,98.51
2023-04-16T08:17:13.333Z,98.53
2023-04-16T08:18:15.677Z,97.95
2023-04-16T08:19:18.212Z,98.48
2023-04-16T08:20:20.694Z,99.70
2023-04-16T08:21:23.040Z,98.76
2023-04-16T08:22:26.261Z,99.03
2023-04-16T08:23:29.919Z,98.16
2023-04-16T08:24:32.349Z,98.58
2023-04-16T08:25:39.404Z,97.97
2023-04-16T08:26:42.388Z,99.49
2023-04-16T08:27:44.815Z,98.48
2023-04-16T08:28:47.063Z,99.15
2023-04-16T08:29:49.341Z,98.90
2023-04-16T08:30:51.932Z,98.86
2023-04-16T08:31:55.097Z,99.38
2023-04-16T08:32:57.686Z,99.58
2023-04-16T08:34:00.706Z,98.19
2023-04-16T08:35:03.250Z,97.67
2023-04-16T08:36:07.889Z,97.03
2023-04-16T08:37:10.700Z,97.03
2023-04-16T08:38:14.189Z,97.42
2023-04-16T08:39:16.558Z,96.42
2023-04-16T08:40:19.923Z,96.47
2023-04-16T08:41:25.872Z,96.88
2023-04-16T08:42:35.982Z,96.32
2023-04-16T08:43:41.003Z,96.03
2023-04-16T08:44:49.318Z,96.14
2023-04-16T08:45:56.363Z,95.78
2023-04-16T08:47:00.912Z,95.42
2023-04-16T08:48:05.665Z,95.00
2023-04-16T08:49:08.759Z,94.74
2023-04-16T08:50:15.887Z,94.46
2023-04-16T08:51:21.607Z,94.75
2023-04-16T08:52:27.166Z,94.89
2023-04-16T08:53:43.073Z,95.02
2023-04-16T08:54:57.292Z,94.53
2023-04-16T08:56:05.404Z,97.82
2023-04-16T08:57:11.355Z,100.00
2023-04-16T08:59:27.680Z,99.05
2023-04-16T09:00:33.294Z,98.83
2023-04-16T09:01:38.407Z,98.55
2023-04-16T09:02:40.898Z,98.30
2023-04-16T09:03:46.504Z,99.07
2023-04-16T09:04:50.727Z,98.81
2023-04-16T09:05:55.591Z,96.92
2023-04-16T09:06:59.087Z,96.66
2023-04-16T09:08:02.500Z,96.70
2023-04-16T09:09:07.429Z,98.22
2023-04-16T09:10:11.603Z,96.60
2023-04-16T09:11:16.100Z,97.15
2023-04-16T09:12:19.937Z,96.69
2023-04-16T09:13:23.424Z,100.00
2023-04-16T09:14:26.436Z,99.53
2023-04-16T09:15:29.568Z,98.59
2023-04-16T09:16:34.554Z,96.50
2023-04-16T09:17:37.043Z,96.96
2023-04-16T09:18:41.551Z,98.41
2023-04-16T09:20:57.541Z,97.07
2023-04-16T09:21:59.932Z,95.98
2023-04-16T09:23:03.210Z,95.22
2023-04-16T09:24:06.152Z,94.33
2023-04-16T09:25:09.303Z,94.76
2023-04-16T09:26:13.086Z,95.24
2023-04-16T09:27:16.671Z,94.55
2023-04-16T09:28:48.151Z,94.54
2023-04-16T09:29:56.242Z,93.48
2023-04-16T09:31:15.014Z,93.40
2023-04-16T09:32:17.804Z,94.50
2023-04-16T09:33:23.266Z,95.30
2023-04-16T09:34:26.541Z,95.29
2023-04-16T09:35:49.255Z,94.45
2023-04-16T09:36:52.767Z,97.32
2023-04-16T09:37:57.568Z,96.83
2023-04-16T09:39:01.379Z,97.22
2023-04-16T09:40:05.517Z,96.76
2023-04-16T09:41:08.585Z,96.69
2023-04-16T09:42:11.457Z,96.40
2023-04-16T09:43:19.000Z,94.88
2023-04-16T09:44:25.521Z,96.33
2023-04-16T09:45:31.487Z,97.42
2023-04-16T09:46:35.721Z,95.85
2023-04-16T09:47:40.735Z,96.61
2023-04-16T09:48:45.593Z,95.62
2023-04-16T09:49:49.995Z,94.27
2023-04-16T09:50:54.057Z,93.45
2023-04-16T09:51:56.590Z,93.01
2023-04-16T09:53:03.080Z,92.80
2023-04-16T09:54:06.742Z,92.92
2023-04-16T09:55:08.942Z,92.81
2023-04-16T09:56:13.259Z,92.85
2023-04-16T09:57:22.790Z,93.37
2023-04-16T09:58:25.753Z,93.81
2023-04-16T09:59:29.845Z,93.88
2023-04-16T10:00:32.548Z,94.18
2023-04-16T10:01:37.326Z,94.60
2023-04-16T10:02:41.747Z,94.50
2023-04-16T10:03:48.179Z,94.21
2023-04-16T10:04:52.892Z,93.78
2023-04-16T10:05:56.346Z,93.73
2023-04-16T10:07:06.316Z,93.36
2023-04-16T10:08:13.364Z,93.26
2023-04-16T10:09:16.541Z,93.85
2023-04-16T10:10:19.280Z,93.72
2023-04-16T10:11:21.579Z,93.15
2023-04-16T10:12:24.005Z,93.15
2023-04-16T10:13:28.297Z,93.23
2023-04-16T10:14:30.804Z,93.10
2023-04-16T10:15:33.813Z,93.30
2023-04-16T10:16:38.609Z,92.85
2023-04-16T10:17:41.822Z,93.10
2023-04-16T10:18:46.100Z,92.83
2023-04-16T10:19:49.406Z,92.58
2023-04-16T10:20:52.690Z,92.78
2023-04-16T10:21:57.105Z,93.38
2023-04-16T10:23:02.571Z,93.92
2023-04-16T10:24:06.126Z,94.26
2023-04-16T10:25:10.889Z,94.69
2023-04-16T10:26:13.742Z,94.78
2023-04-16T10:27:16.638Z,94.56
2023-04-16T10:28:19.380Z,94.45
2023-04-16T10:29:23.705Z,94.45
2023-04-16T10:30:29.346Z,94.38
2023-04-16T10:31:32.787Z,94.29
2023-04-16T10:32:38.114Z,93.73
2023-04-16T10:33:42.113Z,94.06
2023-04-16T10:34:46.136Z,94.26
2023-04-16T10:36:01.375Z,94.41
2023-04-16T10:36:55.494Z,94.45
2023-04-16T10:37:59.362Z,94.48
2023-04-16T10:39:01.838Z,94.23
2023-04-16T10:41:26.251Z,94.82
2023-04-16T10:42:28.630Z,95.04
2023-04-16T10:43:33.533Z,95.14
2023-04-16T10:44:37.041Z,94.43
2023-04-16T10:45:39.909Z,94.69
2023-04-16T10:46:45.937Z,94.77
2023-04-16T10:47:48.988Z,94.36
2023-04-16T10:48:54.050Z,94.41
2023-04-16T10:49:58.652Z,94.25
2023-04-16T10:51:01.141Z,93.82
2023-04-16T10:52:17.851Z,93.89
2023-04-16T10:53:27.406Z,93.82
2023-04-16T10:54:31.073Z,93.48
2023-04-16T10:55:37.040Z,93.95
2023-04-16T10:56:40.915Z,94.15
2023-04-16T10:57:43.208Z,93.81
2023-04-16T10:58:45.575Z,93.91
2023-04-16T10:59:49.033Z,94.00
2023-04-16T11:00:51.882Z,93.76
2023-04-16T11:01:56.999Z,93.60
2023-04-16T11:03:01.864Z,93.36
2023-04-16T11:04:25.633Z,92.97
2023-04-16T11:05:31.897Z,92.73
2023-04-16T11:06:34.992Z,92.77
2023-04-16T11:07:39.217Z,92.23
2023-04-16T11:08:54.145Z,92.23
2023-04-16T11:10:00.297Z,92.15
2023-04-16T11:11:05.544Z,92.19
2023-04-16T11:12:11.141Z,92.41
2023-04-16T11:13:14.046Z,92.29
2023-04-16T11:14:16.850Z,93.50
2023-04-16T11:15:19.505Z,95.29
2023-04-16T11:16:22.119Z,94.81
2023-04-16T11:17:32.863Z,94.32
2023-04-16T11:18:35.934Z,95.00
2023-04-16T11:19:43.729Z,93.94
2023-04-16T11:20:46.343Z,93.43
2023-04-16T11:21:51.383Z,93.59
2023-04-16T11:22:55.502Z,94.37
2023-04-16T11:23:57.707Z,93.72
2023-04-16T11:25:00.560Z,93.42
2023-04-16T11:26:02.847Z,93.32
2023-04-16T11:27:05.664Z,93.97
2023-04-16T11:28:07.997Z,92.95
2023-04-16T11:29:17.589Z,92.54
2023-04-16T11:30:29.823Z,92.08
2023-04-16T11:31:32.276Z,91.73
2023-04-16T11:32:35.717Z,91.71
2023-04-16T11:33:38.860Z,92.99
2023-04-16T11:34:46.560Z,92.33
2023-04-16T11:36:01.392Z,94.12
2023-04-16T11:37:03.868Z,92.89
2023-04-16T11:38:06.754Z,91.94
2023-04-16T11:39:10.166Z,90.79
2023-04-16T11:40:13.353Z,89.85
2023-04-16T11:41:21.554Z,89.76
2023-04-16T11:42:23.833Z,89.64
2023-04-16T11:43:26.607Z,89.19
2023-04-16T11:44:29.147Z,89.16
2023-04-16T11:45:31.383Z,89.38
2023-04-16T11:46:41.273Z,89.08
2023-04-16T11:47:49.792Z,88.22
2023-04-16T11:48:55.059Z,88.47
2023-04-16T11:50:01.198Z,91.33
2023-04-16T11:51:03.587Z,89.97
2023-04-16T11:52:06.907Z,90.12
2023-04-16T11:53:09.374Z,92.51
2023-04-16T11:54:22.801Z,91.94
2023-04-16T11:55:25.818Z,92.74
2023-04-16T11:56:30.237Z,92.19
2023-04-16T11:57:33.119Z,91.56
2023-04-16T11:58:35.351Z,91.79
2023-04-16T11:59:37.495Z,91.62
2023-04-16T12:00:42.885Z,90.41
2023-04-16T12:01:51.460Z,90.80
2023-04-16T12:02:57.190Z,89.96
2023-04-16T12:04:02.632Z,89.13
2023-04-16T12:05:08.811Z,89.20
2023-04-16T12:06:11.460Z,90.68
2023-04-16T12:07:15.078Z,92.21
2023-04-16T12:08:29.226Z,93.30
2023-04-16T12:09:32.016Z,93.30
2023-04-16T12:10:54.594Z,92.24
2023-04-16T12:11:57.387Z,91.23
2023-04-16T12:13:14.176Z,90.86
2023-04-16T12:14:16.650Z,90.50
2023-04-16T12:15:20.017Z,90.09
2023-04-16T12:16:25.679Z,90.21
2023-04-16T12:17:28.059Z,89.53
2023-04-16T12:18:30.684Z,88.93
2023-04-16T12:19:33.054Z,88.70
2023-04-16T12:20:43.480Z,88.76
2023-04-16T12:21:47.854Z,88.55
2023-04-16T12:22:52.225Z,88.84
2023-04-16T12:23:55.123Z,88.33
2023-04-16T12:25:02.922Z,88.26
2023-04-16T12:26:11.315Z,88.40
2023-04-16T12:27:16.002Z,88.12
2023-04-16T12:28:32.137Z,88.13
2023-04-16T12:29:34.949Z,89.74
2023-04-16T12:30:40.980Z,89.90
2023-04-16T12:31:43.852Z,89.63
2023-04-16T12:32:48.196Z,88.71
2023-04-16T12:34:02.929Z,88.52
2023-04-16T12:35:05.519Z,88.12
2023-04-16T12:36:19.246Z,87.93
2023-04-16T12:37:21.980Z,87.48
2023-04-16T12:38:26.156Z,87.10
2023-04-16T12:39:29.425Z,87.44
2023-04-16T12:40:31.717Z,87.78
2023-04-16T12:41:38.214Z,87.91
2023-04-16T12:42:40.645Z,87.07
2023-04-16T12:43:42.884Z,86.48
2023-04-16T12:44:45.317Z,85.98
2023-04-16T12:45:48.791Z,85.88
2023-04-16T12:46:52.278Z,86.05
2023-04-16T12:47:55.263Z,85.90
2023-04-16T12:48:57.639Z,86.02
2023-04-16T12:50:00.123Z,86.25
2023-04-16T12:51:03.386Z,89.14
2023-04-16T12:52:07.005Z,89.06
2023-04-16T12:53:11.639Z,88.84
2023-04-16T12:54:14.564Z,89.26
2023-04-16T12:55:16.941Z,88.40
2023-04-16T12:56:20.144Z,88.39
2023-04-16T12:57:24.800Z,88.06
2023-04-16T12:58:27.313Z,87.67
2023-04-16T12:59:30.064Z,89.09
2023-04-16T13:00:32.293Z,88.74
2023-04-16T13:01:36.596Z,88.25
2023-04-16T13:02:40.028Z,87.62
2023-04-16T13:03:42.674Z,86.74
2023-04-16T13:04:45.117Z,85.80
2023-04-16T13:05:48.166Z,85.42
2023-04-16T13:06:51.099Z,85.35
2023-04-16T13:07:53.914Z,85.94
2023-04-16T13:08:56.693Z,85.36
2023-04-16T13:09:59.631Z,85.59
2023-04-16T13:11:03.399Z,85.88
2023-04-16T13:12:07.124Z,85.98
2023-04-16T13:13:09.794Z,86.28
2023-04-16T13:14:12.634Z,87.33
2023-04-16T13:15:15.228Z,86.72
2023-04-16T13:16:18.110Z,86.58
2023-04-16T13:17:20.490Z,85.96
2023-04-16T13:18:23.941Z,86.72
2023-04-16T13:19:28.552Z,87.06
2023-04-16T13:20:30.955Z,87.09
2023-04-16T13:21:34.936Z,86.71
2023-04-16T13:22:38.014Z,87.73
2023-04-16T13:23:42.859Z,87.71
2023-04-16T13:24:46.827Z,88.39
2023-04-16T13:25:50.674Z,87.29
2023-04-16T13:26:53.185Z,90.12
2023-04-16T13:27:56.528Z,90.31
2023-04-16T13:28:59.282Z,88.68
2023-04-16T13:30:01.625Z,87.54
2023-04-16T13:31:05.856Z,87.35
2023-04-16T13:32:08.331Z,85.74
2023-04-16T13:33:12.940Z,85.20
2023-04-16T13:34:15.841Z,87.88
2023-04-16T13:35:18.208Z,88.08
2023-04-16T13:36:20.534Z,87.50